North Bend, Nebraska
Current Conditions -  °F | °C
As of 11:55 AM on Friday 24 Oct 2014 (Local Time) from KFET Reporting Station
Clear Clear  
Wind Chill: 69°   Ceiling: Unl
Heat Index: 69°   Visibility: 10mi
Dew Point: 57°   Wind: 6mph
Humidity: 67%   Direction: 250°WSW
Pressure: 29.94"   Gusts: NA
Location:  41.46°N, 96.78°W
Report Text: KFET 241655Z AUTO 25005KT 10SM CLR 20/14 A2994 RMK AO2 T02030139
Loading
Personal Weather Stations






























Interactive Weather Map
Tropical Storm Tracking
New forecast layout! Learn more

10-Day Weather Forecast

Advertisements
Track Severe Weather on mobile